sensor_id;sensor_type;location;lat;lon;timestamp;temperature;humidity
53695;DHT22;39588;51.124;7.190;2022-09-06T00:02:01;22.00;51.20
53695;DHT22;39588;51.124;7.190;2022-09-06T00:04:26;21.90;51.40
53695;DHT22;39588;51.124;7.190;2022-09-06T00:06:52;21.90;51.50
53695;DHT22;39588;51.124;7.190;2022-09-06T00:09:18;21.90;51.40
53695;DHT22;39588;51.124;7.190;2022-09-06T00:11:43;21.90;51.30
53695;DHT22;39588;51.124;7.190;2022-09-06T00:14:09;21.90;51.60
53695;DHT22;39588;51.124;7.190;2022-09-06T00:16:35;21.90;51.80
53695;DHT22;39588;51.124;7.190;2022-09-06T00:21:29;21.90;51.80
53695;DHT22;39588;51.124;7.190;2022-09-06T00:26:21;21.90;51.80
53695;DHT22;39588;51.124;7.190;2022-09-06T00:28:47;21.90;51.80
53695;DHT22;39588;51.124;7.190;2022-09-06T00:31:19;21.90;52.00
53695;DHT22;39588;51.124;7.190;2022-09-06T00:36:12;21.90;52.80
53695;DHT22;39588;51.124;7.190;2022-09-06T00:38:38;21.80;53.30
53695;DHT22;39588;51.124;7.190;2022-09-06T00:41:06;21.80;54.50
53695;DHT22;39588;51.124;7.190;2022-09-06T00:43:32;21.70;54.20
53695;DHT22;39588;51.124;7.190;2022-09-06T00:45:58;21.70;53.90
53695;DHT22;39588;51.124;7.190;2022-09-06T00:48:24;21.60;54.20
53695;DHT22;39588;51.124;7.190;2022-09-06T00:50:55;21.70;55.00
53695;DHT22;39588;51.124;7.190;2022-09-06T00:53:21;21.70;54.50
53695;DHT22;39588;51.124;7.190;2022-09-06T00:55:48;21.60;55.40
53695;DHT22;39588;51.124;7.190;2022-09-06T00:58:14;21.60;56.30
53695;DHT22;39588;51.124;7.190;2022-09-06T01:00:40;21.50;57.90
53695;DHT22;39588;51.124;7.190;2022-09-06T01:06:26;21.40;60.10
53695;DHT22;39588;51.124;7.190;2022-09-06T01:18:03;21.10;63.90
53695;DHT22;39588;51.124;7.190;2022-09-06T01:23:28;21.00;63.60
53695;DHT22;39588;51.124;7.190;2022-09-06T01:28:45;20.90;65.30
53695;DHT22;39588;51.124;7.190;2022-09-06T01:31:26;20.90;65.80
53695;DHT22;39588;51.124;7.190;2022-09-06T01:34:41;20.90;66.40
53695;DHT22;39588;51.124;7.190;2022-09-06T01:36:55;20.80;66.70
53695;DHT22;39588;51.124;7.190;2022-09-06T01:39:29;20.70;67.60
53695;DHT22;39588;51.124;7.190;2022-09-06T01:41:57;20.70;68.00
53695;DHT22;39588;51.124;7.190;2022-09-06T01:44:26;20.70;67.50
53695;DHT22;39588;51.124;7.190;2022-09-06T01:55:10;20.70;70.90
53695;DHT22;39588;51.124;7.190;2022-09-06T02:00:26;20.70;73.80
53695;DHT22;39588;51.124;7.190;2022-09-06T02:02:56;20.70;75.10
53695;DHT22;39588;51.124;7.190;2022-09-06T02:05:42;20.70;75.60
53695;DHT22;39588;51.124;7.190;2022-09-06T02:08:16;20.60;77.40
53695;DHT22;39588;51.124;7.190;2022-09-06T02:10:59;20.60;80.80
53695;DHT22;39588;51.124;7.190;2022-09-06T02:13:30;20.50;88.20
53695;DHT22;39588;51.124;7.190;2022-09-06T02:16:05;20.50;88.70
53695;DHT22;39588;51.124;7.190;2022-09-06T02:18:41;20.40;92.40
53695;DHT22;39588;51.124;7.190;2022-09-06T02:21:10;20.40;92.70
53695;DHT22;39588;51.124;7.190;2022-09-06T02:23:39;20.30;95.10
53695;DHT22;39588;51.124;7.190;2022-09-06T02:26:12;20.30;95.30
53695;DHT22;39588;51.124;7.190;2022-09-06T02:28:39;20.10;95.70
53695;DHT22;39588;51.124;7.190;2022-09-06T02:31:17;20.10;95.80
53695;DHT22;39588;51.124;7.190;2022-09-06T02:33:45;20.10;96.00
53695;DHT22;39588;51.124;7.190;2022-09-06T02:36:11;20.00;96.20
53695;DHT22;39588;51.124;7.190;2022-09-06T02:38:39;19.90;96.30
53695;DHT22;39588;51.124;7.190;2022-09-06T02:41:06;19.80;96.20
53695;DHT22;39588;51.124;7.190;2022-09-06T02:43:32;19.80;96.30
53695;DHT22;39588;51.124;7.190;2022-09-06T02:45:57;19.90;96.10
53695;DHT22;39588;51.124;7.190;2022-09-06T02:48:23;19.90;95.90
53695;DHT22;39588;51.124;7.190;2022-09-06T02:50:49;19.90;96.10
53695;DHT22;39588;51.124;7.190;2022-09-06T02:53:15;19.90;96.20
53695;DHT22;39588;51.124;7.190;2022-09-06T02:55:41;19.90;96.10
53695;DHT22;39588;51.124;7.190;2022-09-06T02:58:08;20.00;96.30
53695;DHT22;39588;51.124;7.190;2022-09-06T03:00:35;19.90;96.00
53695;DHT22;39588;51.124;7.190;2022-09-06T03:03:02;20.00;95.80
53695;DHT22;39588;51.124;7.190;2022-09-06T03:05:28;20.00;96.00
53695;DHT22;39588;51.124;7.190;2022-09-06T03:07:54;20.00;95.90
53695;DHT22;39588;51.124;7.190;2022-09-06T03:10:21;19.90;96.00
53695;DHT22;39588;51.124;7.190;2022-09-06T03:12:47;19.90;96.10
53695;DHT22;39588;51.124;7.190;2022-09-06T03:15:14;19.90;95.90
53695;DHT22;39588;51.124;7.190;2022-09-06T03:17:41;19.80;96.10
53695;DHT22;39588;51.124;7.190;2022-09-06T03:20:07;19.80;96.00
53695;DHT22;39588;51.124;7.190;2022-09-06T03:22:37;19.80;96.20
53695;DHT22;39588;51.124;7.190;2022-09-06T03:25:04;19.80;96.40
53695;DHT22;39588;51.124;7.190;2022-09-06T03:27:30;19.80;96.20
53695;DHT22;39588;51.124;7.190;2022-09-06T03:29:55;19.70;96.40
53695;DHT22;39588;51.124;7.190;2022-09-06T03:32:21;19.60;96.50
53695;DHT22;39588;51.124;7.190;2022-09-06T03:34:47;19.60;96.50
53695;DHT22;39588;51.124;7.190;2022-09-06T03:37:12;19.60;96.40
53695;DHT22;39588;51.124;7.190;2022-09-06T03:39:38;19.60;96.40
53695;DHT22;39588;51.124;7.190;2022-09-06T03:42:03;19.60;96.30
53695;DHT22;39588;51.124;7.190;2022-09-06T03:44:29;19.60;96.20
53695;DHT22;39588;51.124;7.190;2022-09-06T03:46:55;19.60;96.10
53695;DHT22;39588;51.124;7.190;2022-09-06T03:49:20;19.70;96.30
53695;DHT22;39588;51.124;7.190;2022-09-06T03:51:46;19.70;96.20
53695;DHT22;39588;51.124;7.190;2022-09-06T03:54:11;19.60;96.40
53695;DHT22;39588;51.124;7.190;2022-09-06T03:59:03;19.50;96.10
53695;DHT22;39588;51.124;7.190;2022-09-06T04:01:29;19.40;96.20
53695;DHT22;39588;51.124;7.190;2022-09-06T04:03:54;19.50;96.40
53695;DHT22;39588;51.124;7.190;2022-09-06T04:06:20;19.40;96.30
53695;DHT22;39588;51.124;7.190;2022-09-06T04:08:46;19.40;96.30
53695;DHT22;39588;51.124;7.190;2022-09-06T04:11:11;19.40;96.40
53695;DHT22;39588;51.124;7.190;2022-09-06T04:13:37;19.30;96.40
53695;DHT22;39588;51.124;7.190;2022-09-06T04:16:03;19.20;96.50
53695;DHT22;39588;51.124;7.190;2022-09-06T04:18:30;19.20;96.50
53695;DHT22;39588;51.124;7.190;2022-09-06T04:20:56;19.20;96.40
53695;DHT22;39588;51.124;7.190;2022-09-06T04:23:24;19.20;96.60
53695;DHT22;39588;51.124;7.190;2022-09-06T04:25:53;19.10;96.60
53695;DHT22;39588;51.124;7.190;2022-09-06T04:28:19;19.10;96.60
53695;DHT22;39588;51.124;7.190;2022-09-06T04:30:54;19.00;96.50
53695;DHT22;39588;51.124;7.190;2022-09-06T04:33:21;19.00;96.70
53695;DHT22;39588;51.124;7.190;2022-09-06T04:35:53;18.90;96.50
53695;DHT22;39588;51.124;7.190;2022-09-06T04:38:25;18.90;96.40
53695;DHT22;39588;51.124;7.190;2022-09-06T04:40:51;18.80;96.20
53695;DHT22;39588;51.124;7.190;2022-09-06T04:43:18;18.80;96.20
53695;DHT22;39588;51.124;7.190;2022-09-06T04:45:44;18.80;96.30
53695;DHT22;39588;51.124;7.190;2022-09-06T04:48:10;18.80;96.00
53695;DHT22;39588;51.124;7.190;2022-09-06T04:50:36;18.70;96.10
53695;DHT22;39588;51.124;7.190;2022-09-06T04:53:02;18.70;96.00
53695;DHT22;39588;51.124;7.190;2022-09-06T04:55:28;18.70;96.00
53695;DHT22;39588;51.124;7.190;2022-09-06T05:00:22;18.60;95.90
53695;DHT22;39588;51.124;7.190;2022-09-06T05:02:48;18.60;95.90
53695;DHT22;39588;51.124;7.190;2022-09-06T05:05:14;18.60;95.80
53695;DHT22;39588;51.124;7.190;2022-09-06T05:07:39;18.60;95.80
53695;DHT22;39588;51.124;7.190;2022-09-06T05:10:05;18.60;95.80
53695;DHT22;39588;51.124;7.190;2022-09-06T05:12:31;18.60;95.80
53695;DHT22;39588;51.124;7.190;2022-09-06T05:14:56;18.60;96.00
53695;DHT22;39588;51.124;7.190;2022-09-06T05:17:22;18.60;95.70
53695;DHT22;39588;51.124;7.190;2022-09-06T05:19:48;18.60;95.70
53695;DHT22;39588;51.124;7.190;2022-09-06T05:22:13;18.60;95.80
53695;DHT22;39588;51.124;7.190;2022-09-06T05:24:39;19.00;96.10
53695;DHT22;39588;51.124;7.190;2022-09-06T05:27:04;18.70;96.00
53695;DHT22;39588;51.124;7.190;2022-09-06T05:29:32;18.70;95.80
53695;DHT22;39588;51.124;7.190;2022-09-06T05:31:58;18.70;95.60
53695;DHT22;39588;51.124;7.190;2022-09-06T05:34:23;18.70;95.70
53695;DHT22;39588;51.124;7.190;2022-09-06T05:36:49;18.70;95.70
53695;DHT22;39588;51.124;7.190;2022-09-06T05:39:14;18.70;95.70
53695;DHT22;39588;51.124;7.190;2022-09-06T05:41:40;18.70;95.80
53695;DHT22;39588;51.124;7.190;2022-09-06T05:44:06;18.70;95.80
53695;DHT22;39588;51.124;7.190;2022-09-06T05:46:31;18.70;95.80
53695;DHT22;39588;51.124;7.190;2022-09-06T05:48:58;18.70;95.90
53695;DHT22;39588;51.124;7.190;2022-09-06T05:51:32;18.70;95.90
53695;DHT22;39588;51.124;7.190;2022-09-06T05:53:57;18.70;95.80
53695;DHT22;39588;51.124;7.190;2022-09-06T05:56:23;18.70;95.90
53695;DHT22;39588;51.124;7.190;2022-09-06T05:58:49;18.90;96.00
53695;DHT22;39588;51.124;7.190;2022-09-06T06:01:19;19.00;95.70
53695;DHT22;39588;51.124;7.190;2022-09-06T06:04:07;19.00;95.90
53695;DHT22;39588;51.124;7.190;2022-09-06T06:06:33;19.20;95.60
53695;DHT22;39588;51.124;7.190;2022-09-06T06:08:59;19.20;95.70
53695;DHT22;39588;51.124;7.190;2022-09-06T06:11:26;19.20;95.60
53695;DHT22;39588;51.124;7.190;2022-09-06T06:13:52;19.30;95.80
53695;DHT22;39588;51.124;7.190;2022-09-06T06:16:19;19.30;95.50
53695;DHT22;39588;51.124;7.190;2022-09-06T06:18:46;19.30;95.40
53695;DHT22;39588;51.124;7.190;2022-09-06T06:23:40;19.50;95.50
53695;DHT22;39588;51.124;7.190;2022-09-06T06:26:06;19.60;95.30
53695;DHT22;39588;51.124;7.190;2022-09-06T06:28:33;19.50;95.40
53695;DHT22;39588;51.124;7.190;2022-09-06T06:31:00;19.70;95.20
53695;DHT22;39588;51.124;7.190;2022-09-06T06:33:26;19.70;95.40
53695;DHT22;39588;51.124;7.190;2022-09-06T06:38:43;20.10;95.10
53695;DHT22;39588;51.124;7.190;2022-09-06T06:41:10;20.10;95.10
53695;DHT22;39588;51.124;7.190;2022-09-06T06:43:36;20.30;94.80
53695;DHT22;39588;51.124;7.190;2022-09-06T06:46:16;20.40;94.70
53695;DHT22;39588;51.124;7.190;2022-09-06T06:48:43;20.50;94.70
53695;DHT22;39588;51.124;7.190;2022-09-06T06:51:13;20.50;94.80
53695;DHT22;39588;51.124;7.190;2022-09-06T06:53:39;20.60;94.60
53695;DHT22;39588;51.124;7.190;2022-09-06T06:56:15;20.70;94.60
53695;DHT22;39588;51.124;7.190;2022-09-06T06:58:42;20.80;94.70
53695;DHT22;39588;51.124;7.190;2022-09-06T07:01:08;20.90;94.10
53695;DHT22;39588;51.124;7.190;2022-09-06T07:03:34;21.00;94.20
53695;DHT22;39588;51.124;7.190;2022-09-06T07:06:01;21.10;94.50
53695;DHT22;39588;51.124;7.190;2022-09-06T07:08:27;21.10;94.40
53695;DHT22;39588;51.124;7.190;2022-09-06T07:10:53;21.20;93.90
53695;DHT22;39588;51.124;7.190;2022-09-06T07:13:18;21.30;93.80
53695;DHT22;39588;51.124;7.190;2022-09-06T07:15:44;21.30;93.60
53695;DHT22;39588;51.124;7.190;2022-09-06T07:18:09;21.50;93.70
53695;DHT22;39588;51.124;7.190;2022-09-06T07:20:35;21.60;93.80
53695;DHT22;39588;51.124;7.190;2022-09-06T07:23:03;21.70;93.50
53695;DHT22;39588;51.124;7.190;2022-09-06T07:25:31;21.80;93.30
53695;DHT22;39588;51.124;7.190;2022-09-06T07:28:02;21.90;93.20
53695;DHT22;39588;51.124;7.190;2022-09-06T07:30:32;22.00;93.00
53695;DHT22;39588;51.124;7.190;2022-09-06T07:32:59;22.10;92.70
53695;DHT22;39588;51.124;7.190;2022-09-06T07:35:25;22.10;92.80
53695;DHT22;39588;51.124;7.190;2022-09-06T07:37:56;22.20;93.20
53695;DHT22;39588;51.124;7.190;2022-09-06T07:40:23;22.30;92.10
53695;DHT22;39588;51.124;7.190;2022-09-06T07:42:49;22.40;92.30
53695;DHT22;39588;51.124;7.190;2022-09-06T07:45:15;22.50;92.10
53695;DHT22;39588;51.124;7.190;2022-09-06T07:47:41;22.50;91.50
53695;DHT22;39588;51.124;7.190;2022-09-06T07:50:07;22.60;91.30
53695;DHT22;39588;51.124;7.190;2022-09-06T07:52:33;22.70;91.10
53695;DHT22;39588;51.124;7.190;2022-09-06T07:54:59;22.70;90.90
53695;DHT22;39588;51.124;7.190;2022-09-06T07:57:24;22.80;90.90
53695;DHT22;39588;51.124;7.190;2022-09-06T07:59:50;22.80;90.30
53695;DHT22;39588;51.124;7.190;2022-09-06T08:02:16;22.80;90.40
53695;DHT22;39588;51.124;7.190;2022-09-06T08:04:42;22.90;90.10
53695;DHT22;39588;51.124;7.190;2022-09-06T08:07:08;23.00;89.90
53695;DHT22;39588;51.124;7.190;2022-09-06T08:09:34;23.10;89.40
53695;DHT22;39588;51.124;7.190;2022-09-06T08:12:00;23.20;88.70
53695;DHT22;39588;51.124;7.190;2022-09-06T08:14:31;23.30;89.30
53695;DHT22;39588;51.124;7.190;2022-09-06T08:16:57;23.50;86.90
53695;DHT22;39588;51.124;7.190;2022-09-06T08:19:23;23.40;86.50
53695;DHT22;39588;51.124;7.190;2022-09-06T08:21:49;23.40;86.40
53695;DHT22;39588;51.124;7.190;2022-09-06T08:24:18;23.50;86.20
53695;DHT22;39588;51.124;7.190;2022-09-06T08:26:43;23.60;85.70
53695;DHT22;39588;51.124;7.190;2022-09-06T08:29:10;23.70;85.00
53695;DHT22;39588;51.124;7.190;2022-09-06T08:31:38;23.80;85.20
53695;DHT22;39588;51.124;7.190;2022-09-06T08:34:04;24.00;84.40
53695;DHT22;39588;51.124;7.190;2022-09-06T08:36:30;24.10;82.20
53695;DHT22;39588;51.124;7.190;2022-09-06T08:38:57;24.30;82.70
53695;DHT22;39588;51.124;7.190;2022-09-06T08:42:03;24.40;82.00
53695;DHT22;39588;51.124;7.190;2022-09-06T08:49:36;24.80;80.00
53695;DHT22;39588;51.124;7.190;2022-09-06T08:52:10;25.00;78.90
53695;DHT22;39588;51.124;7.190;2022-09-06T08:57:57;25.20;76.20
53695;DHT22;39588;51.124;7.190;2022-09-06T09:00:25;25.20;74.70
53695;DHT22;39588;51.124;7.190;2022-09-06T09:05:36;25.20;74.00
53695;DHT22;39588;51.124;7.190;2022-09-06T09:08:27;25.30;73.10
53695;DHT22;39588;51.124;7.190;2022-09-06T09:11:17;25.30;72.80
53695;DHT22;39588;51.124;7.190;2022-09-06T09:13:57;25.40;72.00
53695;DHT22;39588;51.124;7.190;2022-09-06T09:16:24;25.50;72.30
53695;DHT22;39588;51.124;7.190;2022-09-06T09:19:03;25.70;71.30
53695;DHT22;39588;51.124;7.190;2022-09-06T09:21:35;25.80;71.40
53695;DHT22;39588;51.124;7.190;2022-09-06T09:24:04;25.90;70.50
53695;DHT22;39588;51.124;7.190;2022-09-06T09:29:12;26.00;69.50
53695;DHT22;39588;51.124;7.190;2022-09-06T09:34:04;26.20;67.90
53695;DHT22;39588;51.124;7.190;2022-09-06T09:36:31;26.20;67.60
53695;DHT22;39588;51.124;7.190;2022-09-06T09:38:57;26.20;66.80
53695;DHT22;39588;51.124;7.190;2022-09-06T09:41:30;26.20;67.20
53695;DHT22;39588;51.124;7.190;2022-09-06T09:43:59;26.10;65.30
53695;DHT22;39588;51.124;7.190;2022-09-06T09:46:34;26.10;66.40
53695;DHT22;39588;51.124;7.190;2022-09-06T09:52:05;26.40;66.90
53695;DHT22;39588;51.124;7.190;2022-09-06T09:54:41;26.30;63.90
53695;DHT22;39588;51.124;7.190;2022-09-06T09:57:10;26.20;63.40
53695;DHT22;39588;51.124;7.190;2022-09-06T09:59:51;26.20;65.10
53695;DHT22;39588;51.124;7.190;2022-09-06T10:02:23;26.50;65.90
53695;DHT22;39588;51.124;7.190;2022-09-06T10:05:36;26.70;64.90
53695;DHT22;39588;51.124;7.190;2022-09-06T10:07:49;26.80;64.80
53695;DHT22;39588;51.124;7.190;2022-09-06T10:10:22;27.00;62.70
53695;DHT22;39588;51.124;7.190;2022-09-06T10:12:48;27.00;63.40
53695;DHT22;39588;51.124;7.190;2022-09-06T10:15:38;27.20;63.80
53695;DHT22;39588;51.124;7.190;2022-09-06T10:18:04;27.20;62.50
53695;DHT22;39588;51.124;7.190;2022-09-06T10:20:39;27.20;61.50
53695;DHT22;39588;51.124;7.190;2022-09-06T10:23:54;27.00;61.40
53695;DHT22;39588;51.124;7.190;2022-09-06T10:36:22;26.70;61.90
53695;DHT22;39588;51.124;7.190;2022-09-06T10:38:57;26.90;62.80
53695;DHT22;39588;51.124;7.190;2022-09-06T10:52:45;27.20;59.50
53695;DHT22;39588;51.124;7.190;2022-09-06T10:55:15;27.00;59.90
53695;DHT22;39588;51.124;7.190;2022-09-06T10:57:47;27.00;60.60
53695;DHT22;39588;51.124;7.190;2022-09-06T11:00:15;27.10;60.80
53695;DHT22;39588;51.124;7.190;2022-09-06T11:05:40;27.00;59.70
53695;DHT22;39588;51.124;7.190;2022-09-06T11:10:47;27.30;60.40
53695;DHT22;39588;51.124;7.190;2022-09-06T11:13:17;27.50;60.50
53695;DHT22;39588;51.124;7.190;2022-09-06T11:27:04;27.50;58.80
53695;DHT22;39588;51.124;7.190;2022-09-06T11:29:32;27.50;58.80
53695;DHT22;39588;51.124;7.190;2022-09-06T11:32:03;27.60;59.70
53695;DHT22;39588;51.124;7.190;2022-09-06T11:34:56;27.70;58.80
53695;DHT22;39588;51.124;7.190;2022-09-06T11:37:46;27.70;58.40
53695;DHT22;39588;51.124;7.190;2022-09-06T11:40:23;27.80;58.20
53695;DHT22;39588;51.124;7.190;2022-09-06T11:45:17;27.80;57.30
53695;DHT22;39588;51.124;7.190;2022-09-06T11:47:51;27.80;58.10
53695;DHT22;39588;51.124;7.190;2022-09-06T11:52:57;27.80;57.90
53695;DHT22;39588;51.124;7.190;2022-09-06T11:55:31;27.90;58.10
53695;DHT22;39588;51.124;7.190;2022-09-06T11:57:59;28.00;57.90
53695;DHT22;39588;51.124;7.190;2022-09-06T12:00:26;28.00;57.70
53695;DHT22;39588;51.124;7.190;2022-09-06T12:02:54;28.10;57.40
53695;DHT22;39588;51.124;7.190;2022-09-06T12:11:02;28.00;57.40
53695;DHT22;39588;51.124;7.190;2022-09-06T12:14:00;28.00;57.40
53695;DHT22;39588;51.124;7.190;2022-09-06T12:19:44;28.20;57.10
53695;DHT22;39588;51.124;7.190;2022-09-06T12:32:56;27.90;57.30
53695;DHT22;39588;51.124;7.190;2022-09-06T12:40:28;28.20;57.00
53695;DHT22;39588;51.124;7.190;2022-09-06T12:45:22;28.20;56.90
53695;DHT22;39588;51.124;7.190;2022-09-06T12:50:21;28.30;56.50
53695;DHT22;39588;51.124;7.190;2022-09-06T12:52:57;28.40;56.60
53695;DHT22;39588;51.124;7.190;2022-09-06T12:55:33;28.30;56.80
53695;DHT22;39588;51.124;7.190;2022-09-06T12:58:02;28.40;56.20
53695;DHT22;39588;51.124;7.190;2022-09-06T13:03:23;28.30;54.40
53695;DHT22;39588;51.124;7.190;2022-09-06T13:08:32;28.20;53.50
53695;DHT22;39588;51.124;7.190;2022-09-06T13:10:59;28.20;54.00
53695;DHT22;39588;51.124;7.190;2022-09-06T13:13:25;28.20;53.60
53695;DHT22;39588;51.124;7.190;2022-09-06T13:18:37;28.20;53.30
53695;DHT22;39588;51.124;7.190;2022-09-06T13:28:32;28.40;53.40
53695;DHT22;39588;51.124;7.190;2022-09-06T13:31:05;28.50;53.30
53695;DHT22;39588;51.124;7.190;2022-09-06T13:43:26;28.70;52.90
53695;DHT22;39588;51.124;7.190;2022-09-06T13:46:06;28.60;53.10
53695;DHT22;39588;51.124;7.190;2022-09-06T13:51:02;28.70;51.50
53695;DHT22;39588;51.124;7.190;2022-09-06T13:59:31;28.90;51.40
53695;DHT22;39588;51.124;7.190;2022-09-06T14:06:52;28.60;51.80
53695;DHT22;39588;51.124;7.190;2022-09-06T14:09:18;28.50;51.50
53695;DHT22;39588;51.124;7.190;2022-09-06T14:36:14;28.60;50.10
53695;DHT22;39588;51.124;7.190;2022-09-06T14:43:35;28.60;48.40
53695;DHT22;39588;51.124;7.190;2022-09-06T15:03:39;28.30;49.00
53695;DHT22;39588;51.124;7.190;2022-09-06T15:06:05;28.20;48.60
53695;DHT22;39588;51.124;7.190;2022-09-06T15:13:24;28.20;48.90
53695;DHT22;39588;51.124;7.190;2022-09-06T15:15:51;28.20;48.80
53695;DHT22;39588;51.124;7.190;2022-09-06T15:18:17;28.20;49.00
53695;DHT22;39588;51.124;7.190;2022-09-06T15:23:09;28.20;48.90
53695;DHT22;39588;51.124;7.190;2022-09-06T15:25:35;28.10;48.90
53695;DHT22;39588;51.124;7.190;2022-09-06T15:28:01;28.10;48.20
53695;DHT22;39588;51.124;7.190;2022-09-06T15:37:46;28.00;47.40
53695;DHT22;39588;51.124;7.190;2022-09-06T15:45:05;28.00;48.00
53695;DHT22;39588;51.124;7.190;2022-09-06T15:52:26;27.80;47.60
53695;DHT22;39588;51.124;7.190;2022-09-06T15:54:52;27.80;48.10
53695;DHT22;39588;51.124;7.190;2022-09-06T15:57:36;27.80;48.20
53695;DHT22;39588;51.124;7.190;2022-09-06T16:00:03;27.80;47.90
53695;DHT22;39588;51.124;7.190;2022-09-06T16:02:29;27.80;47.70
53695;DHT22;39588;51.124;7.190;2022-09-06T16:04:54;27.80;48.10
53695;DHT22;39588;51.124;7.190;2022-09-06T16:07:20;27.70;47.70
53695;DHT22;39588;51.124;7.190;2022-09-06T16:14:38;27.70;48.40
53695;DHT22;39588;51.124;7.190;2022-09-06T16:24:23;27.60;47.00
53695;DHT22;39588;51.124;7.190;2022-09-06T16:26:49;27.50;47.20
53695;DHT22;39588;51.124;7.190;2022-09-06T16:29:16;27.50;46.70
53695;DHT22;39588;51.124;7.190;2022-09-06T16:31:42;27.50;46.80
53695;DHT22;39588;51.124;7.190;2022-09-06T16:41:43;27.40;46.70
53695;DHT22;39588;51.124;7.190;2022-09-06T16:44:11;27.40;47.10
53695;DHT22;39588;51.124;7.190;2022-09-06T16:46:45;27.30;47.00
53695;DHT22;39588;51.124;7.190;2022-09-06T16:56:31;27.20;47.20
53695;DHT22;39588;51.124;7.190;2022-09-06T16:59:01;27.10;47.80
53695;DHT22;39588;51.124;7.190;2022-09-06T17:01:28;27.00;48.00
53695;DHT22;39588;51.124;7.190;2022-09-06T17:06:22;26.80;48.20
53695;DHT22;39588;51.124;7.190;2022-09-06T17:08:49;26.70;48.50
53695;DHT22;39588;51.124;7.190;2022-09-06T17:11:18;26.60;48.60
53695;DHT22;39588;51.124;7.190;2022-09-06T17:13:45;26.60;48.80
53695;DHT22;39588;51.124;7.190;2022-09-06T17:23:51;26.30;48.70
53695;DHT22;39588;51.124;7.190;2022-09-06T17:26:17;26.30;49.10
53695;DHT22;39588;51.124;7.190;2022-09-06T17:28:48;26.20;49.60
53695;DHT22;39588;51.124;7.190;2022-09-06T17:38:37;25.90;50.10
53695;DHT22;39588;51.124;7.190;2022-09-06T17:41:03;26.00;50.20
53695;DHT22;39588;51.124;7.190;2022-09-06T17:43:29;25.90;49.00
53695;DHT22;39588;51.124;7.190;2022-09-06T17:55:41;25.80;48.10
53695;DHT22;39588;51.124;7.190;2022-09-06T17:58:09;25.90;48.20
53695;DHT22;39588;51.124;7.190;2022-09-06T18:00:39;25.90;48.20
53695;DHT22;39588;51.124;7.190;2022-09-06T18:03:06;25.90;48.60
53695;DHT22;39588;51.124;7.190;2022-09-06T18:05:38;25.80;48.60
53695;DHT22;39588;51.124;7.190;2022-09-06T18:08:08;25.70;48.70
53695;DHT22;39588;51.124;7.190;2022-09-06T18:10:35;25.70;48.50
53695;DHT22;39588;51.124;7.190;2022-09-06T18:13:05;25.70;48.50
53695;DHT22;39588;51.124;7.190;2022-09-06T18:17:57;25.60;49.40
53695;DHT22;39588;51.124;7.190;2022-09-06T18:20:26;25.60;49.70
53695;DHT22;39588;51.124;7.190;2022-09-06T18:30:10;25.30;49.80
53695;DHT22;39588;51.124;7.190;2022-09-06T18:35:02;25.30;50.10
53695;DHT22;39588;51.124;7.190;2022-09-06T18:39:55;25.20;50.00
53695;DHT22;39588;51.124;7.190;2022-09-06T18:44:47;25.20;50.90
53695;DHT22;39588;51.124;7.190;2022-09-06T18:47:13;25.00;51.80
53695;DHT22;39588;51.124;7.190;2022-09-06T18:49:38;24.90;51.50
53695;DHT22;39588;51.124;7.190;2022-09-06T18:52:04;24.90;51.50
53695;DHT22;39588;51.124;7.190;2022-09-06T18:54:31;24.90;51.40
53695;DHT22;39588;51.124;7.190;2022-09-06T18:56:57;24.90;51.30
53695;DHT22;39588;51.124;7.190;2022-09-06T18:59:23;25.00;51.10
53695;DHT22;39588;51.124;7.190;2022-09-06T19:04:15;25.10;50.70
53695;DHT22;39588;51.124;7.190;2022-09-06T19:06:42;25.10;50.70
53695;DHT22;39588;51.124;7.190;2022-09-06T19:09:11;25.10;50.90
53695;DHT22;39588;51.124;7.190;2022-09-06T19:11:37;25.10;51.00
53695;DHT22;39588;51.124;7.190;2022-09-06T19:14:06;25.10;51.50
53695;DHT22;39588;51.124;7.190;2022-09-06T19:19:06;24.90;52.90
53695;DHT22;39588;51.124;7.190;2022-09-06T19:21:33;24.80;53.60
53695;DHT22;39588;51.124;7.190;2022-09-06T19:24:04;24.70;53.90
53695;DHT22;39588;51.124;7.190;2022-09-06T19:26:33;24.70;54.10
53695;DHT22;39588;51.124;7.190;2022-09-06T19:29:00;24.70;54.40
53695;DHT22;39588;51.124;7.190;2022-09-06T19:31:29;24.70;54.90
53695;DHT22;39588;51.124;7.190;2022-09-06T19:33:55;24.70;55.10
53695;DHT22;39588;51.124;7.190;2022-09-06T19:36:23;24.70;55.40
53695;DHT22;39588;51.124;7.190;2022-09-06T19:39:03;24.60;55.70
53695;DHT22;39588;51.124;7.190;2022-09-06T19:41:29;24.60;56.00
53695;DHT22;39588;51.124;7.190;2022-09-06T19:43:56;24.60;56.30
53695;DHT22;39588;51.124;7.190;2022-09-06T19:46:23;24.50;56.70
53695;DHT22;39588;51.124;7.190;2022-09-06T19:48:50;24.50;57.10
53695;DHT22;39588;51.124;7.190;2022-09-06T19:51:17;24.50;57.10
53695;DHT22;39588;51.124;7.190;2022-09-06T19:53:48;24.40;57.20
53695;DHT22;39588;51.124;7.190;2022-09-06T19:56:16;24.40;57.70
53695;DHT22;39588;51.124;7.190;2022-09-06T19:58:43;24.40;57.90
53695;DHT22;39588;51.124;7.190;2022-09-06T20:01:10;24.40;58.50
53695;DHT22;39588;51.124;7.190;2022-09-06T20:03:38;24.40;58.60
53695;DHT22;39588;51.124;7.190;2022-09-06T20:08:32;24.40;59.10
53695;DHT22;39588;51.124;7.190;2022-09-06T20:11:00;24.30;59.20
53695;DHT22;39588;51.124;7.190;2022-09-06T20:13:27;24.30;59.20
53695;DHT22;39588;51.124;7.190;2022-09-06T20:15:53;24.30;59.30
53695;DHT22;39588;51.124;7.190;2022-09-06T20:18:19;24.30;59.60
53695;DHT22;39588;51.124;7.190;2022-09-06T20:20:45;24.30;59.70
53695;DHT22;39588;51.124;7.190;2022-09-06T20:23:11;24.30;59.70
53695;DHT22;39588;51.124;7.190;2022-09-06T20:25:37;24.20;59.80
53695;DHT22;39588;51.124;7.190;2022-09-06T20:28:05;24.20;59.90
53695;DHT22;39588;51.124;7.190;2022-09-06T20:30:32;24.20;60.00
53695;DHT22;39588;51.124;7.190;2022-09-06T20:32:59;24.20;60.30
53695;DHT22;39588;51.124;7.190;2022-09-06T20:35:27;24.10;60.40
53695;DHT22;39588;51.124;7.190;2022-09-06T20:37:53;24.10;60.50
53695;DHT22;39588;51.124;7.190;2022-09-06T20:42:45;24.00;60.80
53695;DHT22;39588;51.124;7.190;2022-09-06T20:45:14;23.90;60.90
53695;DHT22;39588;51.124;7.190;2022-09-06T21:04:42;23.60;60.40
53695;DHT22;39588;51.124;7.190;2022-09-06T21:07:08;23.50;60.70
53695;DHT22;39588;51.124;7.190;2022-09-06T21:09:34;23.50;60.90
53695;DHT22;39588;51.124;7.190;2022-09-06T21:14:27;23.40;61.30
53695;DHT22;39588;51.124;7.190;2022-09-06T21:24:11;23.10;62.20
53695;DHT22;39588;51.124;7.190;2022-09-06T21:26:37;23.10;62.40
53695;DHT22;39588;51.124;7.190;2022-09-06T21:29:03;23.10;62.60
53695;DHT22;39588;51.124;7.190;2022-09-06T21:31:31;23.10;63.10
53695;DHT22;39588;51.124;7.190;2022-09-06T21:34:00;23.00;62.90
53695;DHT22;39588;51.124;7.190;2022-09-06T21:36:28;22.90;62.90